Blairsville, Illinois
Current Conditions -  °F | °C
As of 1:52 PM on Saturday 25 Oct 2014 (Local Time) from KMWA Reporting Station
Clear Clear  
Wind Chill: 79°   Ceiling: Unl
Heat Index: 80°   Visibility: 20mi
Dew Point: 59°   Wind: 8mph
Humidity: 51%   Direction: 310°NW
Pressure: 30.02"   Gusts: NA
Location:  37.7927°N, 89.0997°W
Report Text: KMWA 251852Z 31007KT 20SM SKC 26/15 A3002
Loading
Personal Weather Stations






























Interactive Weather Map
Tropical Storm Tracking
New forecast layout! Learn more

10-Day Weather Forecast

Advertisements
Track Severe Weather on mobile